createdAt,value
2019-03-25T00:02:02.378Z,11.01
2019-03-25T00:04:33.170Z,11.14
2019-03-25T00:07:04.292Z,11.05
2019-03-25T00:09:35.058Z,10.85
2019-03-25T00:12:05.809Z,10.85
2019-03-25T00:14:36.673Z,11.03
2019-03-25T00:17:07.455Z,11.03
2019-03-25T00:19:38.247Z,11.04
2019-03-25T00:22:09.121Z,11.08
2019-03-25T00:24:39.893Z,10.98
2019-03-25T00:27:10.645Z,10.94
2019-03-25T00:29:41.437Z,10.96
2019-03-25T00:32:12.242Z,10.96
2019-03-25T00:34:43.009Z,11.00
2019-03-25T00:37:13.763Z,11.00
2019-03-25T00:39:44.532Z,11.08
2019-03-25T00:42:15.289Z,11.10
2019-03-25T00:44:46.092Z,10.99
2019-03-25T00:47:16.879Z,10.86
2019-03-25T00:49:47.642Z,10.78
2019-03-25T00:52:18.397Z,10.88
2019-03-25T00:54:50.270Z,10.90
2019-03-25T00:57:21.237Z,10.92
2019-03-25T00:59:51.995Z,10.95
2019-03-25T01:02:22.778Z,10.93
2019-03-25T01:04:53.547Z,10.92
2019-03-25T01:07:24.503Z,10.73
2019-03-25T01:09:55.290Z,10.72
2019-03-25T01:12:26.083Z,10.83
2019-03-25T01:14:56.851Z,10.79
2019-03-25T01:17:27.603Z,10.90
2019-03-25T01:19:58.370Z,11.02
2019-03-25T01:22:29.125Z,10.99
2019-03-25T01:25:02.107Z,10.98
2019-03-25T01:27:32.546Z,10.89
2019-03-25T01:30:05.711Z,10.86
2019-03-25T01:32:36.512Z,10.78
2019-03-25T01:35:07.275Z,10.78
2019-03-25T01:37:38.122Z,10.68
2019-03-25T01:40:08.881Z,10.58
2019-03-25T01:42:39.663Z,10.50
2019-03-25T01:45:10.536Z,10.63
2019-03-25T01:47:41.283Z,10.75
2019-03-25T01:50:12.154Z,10.60
2019-03-25T01:52:42.938Z,10.66
2019-03-25T01:55:13.923Z,10.75
2019-03-25T01:57:44.754Z,10.75
2019-03-25T02:00:15.648Z,10.88
2019-03-25T02:02:46.397Z,10.38
2019-03-25T02:05:17.162Z,10.68
2019-03-25T02:07:48.118Z,10.67
2019-03-25T02:10:18.892Z,10.62
2019-03-25T02:12:49.656Z,10.67
2019-03-25T02:15:20.414Z,10.71
2019-03-25T02:17:51.234Z,10.72
2019-03-25T02:20:26.576Z,10.71
2019-03-25T02:22:54.936Z,10.68
2019-03-25T02:25:26.076Z,10.60
2019-03-25T02:27:56.894Z,10.60
2019-03-25T02:30:27.711Z,10.64
2019-03-25T02:32:58.487Z,10.63
2019-03-25T02:35:29.268Z,10.43
2019-03-25T02:38:00.032Z,10.44
2019-03-25T02:40:30.784Z,10.54
2019-03-25T02:43:01.563Z,10.49
2019-03-25T02:45:32.328Z,10.48
2019-03-25T02:48:03.088Z,10.41
2019-03-25T02:50:33.842Z,10.43
2019-03-25T02:53:04.603Z,10.31
2019-03-25T02:55:42.053Z,10.31
2019-03-25T02:58:08.041Z,10.37
2019-03-25T03:00:39.229Z,10.39
2019-03-25T03:03:10.004Z,10.34
2019-03-25T03:05:40.789Z,10.36
2019-03-25T03:08:11.550Z,10.43
2019-03-25T03:10:42.305Z,10.35
2019-03-25T03:13:13.068Z,10.00
2019-03-25T03:15:43.850Z,10.12
2019-03-25T03:18:14.641Z,10.14
2019-03-25T03:20:45.427Z,10.10
2019-03-25T03:23:16.190Z,10.19
2019-03-25T03:25:56.977Z,10.18
2019-03-25T03:28:19.625Z,10.07
2019-03-25T03:30:50.408Z,10.04
2019-03-25T03:33:21.207Z,9.98
2019-03-25T03:35:51.960Z,10.02
2019-03-25T03:38:22.694Z,9.80
2019-03-25T03:40:53.555Z,9.56
2019-03-25T03:43:24.379Z,9.78
2019-03-25T03:45:55.080Z,9.72
2019-03-25T03:48:25.848Z,9.75
2019-03-25T03:50:56.797Z,9.48
2019-03-25T03:53:27.581Z,9.61
2019-03-25T03:56:11.990Z,9.50
2019-03-25T03:58:32.351Z,9.63
2019-03-25T04:01:03.128Z,9.70
2019-03-25T04:03:33.873Z,9.45
2019-03-25T04:06:04.633Z,9.68
2019-03-25T04:08:35.431Z,9.87
2019-03-25T04:11:06.206Z,9.74
2019-03-25T04:13:37.005Z,9.73
2019-03-25T04:16:07.832Z,9.60
2019-03-25T04:18:38.602Z,9.50
2019-03-25T04:21:09.351Z,9.52
2019-03-25T04:23:40.215Z,9.68
2019-03-25T04:26:10.980Z,9.75
2019-03-25T04:28:41.786Z,9.70
2019-03-25T04:31:12.559Z,9.33
2019-03-25T04:33:43.326Z,9.42
2019-03-25T04:36:14.086Z,9.61
2019-03-25T04:38:44.850Z,9.56
2019-03-25T04:41:15.631Z,9.49
2019-03-25T04:43:46.426Z,9.53
2019-03-25T04:46:17.210Z,9.57
2019-03-25T04:48:47.953Z,9.36
2019-03-25T04:51:18.738Z,9.34
2019-03-25T04:53:49.526Z,9.46
2019-03-25T04:56:20.278Z,9.35
2019-03-25T04:58:51.055Z,9.41
2019-03-25T05:01:21.809Z,9.40
2019-03-25T05:03:52.593Z,9.29
2019-03-25T05:06:23.350Z,9.37
2019-03-25T05:08:54.105Z,9.42
2019-03-25T05:11:30.464Z,9.42
2019-03-25T05:13:57.579Z,9.28
2019-03-25T05:16:28.329Z,9.41
2019-03-25T05:18:59.154Z,9.17
2019-03-25T05:21:29.914Z,9.08
2019-03-25T05:24:00.701Z,8.95
2019-03-25T05:26:31.454Z,8.90
2019-03-25T05:29:02.256Z,8.77
2019-03-25T05:31:33.033Z,8.87
2019-03-25T05:34:03.790Z,8.96
2019-03-25T05:36:34.581Z,9.11
2019-03-25T05:39:07.284Z,8.97
2019-03-25T05:41:38.083Z,9.04
2019-03-25T05:44:08.851Z,8.96
2019-03-25T05:46:39.625Z,9.05
2019-03-25T05:49:10.365Z,9.06
2019-03-25T05:51:41.163Z,8.97
2019-03-25T05:54:11.918Z,9.10
2019-03-25T05:56:42.708Z,9.14
2019-03-25T05:59:13.499Z,8.92
2019-03-25T06:01:44.457Z,8.63
2019-03-25T06:04:15.333Z,8.74
2019-03-25T06:06:46.177Z,8.71
2019-03-25T06:09:16.931Z,8.44
2019-03-25T06:11:47.724Z,8.50
2019-03-25T06:14:18.476Z,8.58
2019-03-25T06:16:49.238Z,8.39
2019-03-25T06:19:19.992Z,8.42
2019-03-25T06:21:50.782Z,8.40
2019-03-25T06:24:21.533Z,8.31
2019-03-25T06:26:52.299Z,8.24
2019-03-25T06:29:23.066Z,8.31
2019-03-25T06:31:53.842Z,8.13
2019-03-25T06:34:24.594Z,8.12
2019-03-25T06:36:55.381Z,8.26
2019-03-25T06:39:26.163Z,7.88
2019-03-25T06:41:56.924Z,8.10
2019-03-25T06:44:27.676Z,8.27
2019-03-25T06:46:58.469Z,8.15
2019-03-25T06:49:29.222Z,8.08
2019-03-25T06:51:59.989Z,7.93
2019-03-25T06:54:30.747Z,7.88
2019-03-25T06:57:01.509Z,7.73
2019-03-25T06:59:32.263Z,7.83
2019-03-25T07:02:03.238Z,7.79
2019-03-25T07:04:33.999Z,7.81
2019-03-25T07:07:04.768Z,7.67
2019-03-25T07:09:35.561Z,7.66
2019-03-25T07:12:06.325Z,7.88
2019-03-25T07:14:37.124Z,7.91
2019-03-25T07:17:07.952Z,7.66
2019-03-25T07:19:38.706Z,7.50
2019-03-25T07:22:09.470Z,7.77
2019-03-25T07:24:40.216Z,7.81
2019-03-25T07:27:11.011Z,7.79
2019-03-25T07:29:41.764Z,7.84
2019-03-25T07:32:12.535Z,7.85
2019-03-25T07:34:43.337Z,7.98
2019-03-25T07:37:14.130Z,7.96
2019-03-25T07:39:44.953Z,7.89
2019-03-25T07:42:15.726Z,7.87
2019-03-25T07:44:46.475Z,7.68
2019-03-25T07:47:17.309Z,7.75
2019-03-25T07:49:48.097Z,7.78
2019-03-25T07:52:18.950Z,7.87
2019-03-25T07:54:49.776Z,8.01
2019-03-25T07:57:20.622Z,8.06
2019-03-25T07:59:51.413Z,7.98
2019-03-25T08:02:22.210Z,7.94
2019-03-25T08:04:52.997Z,7.97
2019-03-25T08:07:23.786Z,7.83
2019-03-25T08:09:54.554Z,7.96
2019-03-25T08:12:25.309Z,8.02
2019-03-25T08:14:56.165Z,8.01
2019-03-25T08:17:27.036Z,8.09
2019-03-25T08:19:57.833Z,8.13
2019-03-25T08:22:28.678Z,8.15
2019-03-25T08:24:59.444Z,8.12
2019-03-25T08:27:30.216Z,7.94
2019-03-25T08:30:00.979Z,8.08
2019-03-25T08:32:31.748Z,8.21
2019-03-25T08:35:04.652Z,8.43
2019-03-25T08:37:35.451Z,8.38
2019-03-25T08:40:06.303Z,8.17
2019-03-25T08:42:37.081Z,8.18
2019-03-25T08:45:08.134Z,8.33
2019-03-25T08:47:38.912Z,8.46
2019-03-25T08:50:09.969Z,8.39
2019-03-25T08:52:40.693Z,8.73
2019-03-25T08:55:11.451Z,8.96
2019-03-25T08:57:42.243Z,8.95
2019-03-25T09:00:13.254Z,9.15
2019-03-25T09:02:44.054Z,9.26
2019-03-25T09:05:14.933Z,9.32
2019-03-25T09:07:45.724Z,9.39
2019-03-25T09:10:16.608Z,9.50
2019-03-25T09:12:47.402Z,9.51
2019-03-25T09:15:18.384Z,9.54
2019-03-25T09:17:49.190Z,9.50
2019-03-25T09:20:19.959Z,9.59
2019-03-25T09:22:50.748Z,9.71
2019-03-25T09:25:21.529Z,9.80
2019-03-25T09:27:52.296Z,9.84
2019-03-25T09:30:52.825Z,9.78
2019-03-25T09:33:23.642Z,9.91
2019-03-25T09:35:54.438Z,9.92
2019-03-25T09:38:25.159Z,9.84
2019-03-25T09:40:55.954Z,9.61
2019-03-25T09:43:26.750Z,9.67
2019-03-25T09:45:57.507Z,9.59
2019-03-25T09:48:29.377Z,9.76
2019-03-25T09:51:00.143Z,9.98
2019-03-25T09:53:30.973Z,9.83
2019-03-25T09:56:01.730Z,9.83
2019-03-25T09:58:36.525Z,9.76
2019-03-25T10:01:06.046Z,9.76
2019-03-25T10:03:36.869Z,9.81
2019-03-25T10:06:07.776Z,9.71
2019-03-25T10:08:38.556Z,9.42
2019-03-25T10:11:09.325Z,9.21
2019-03-25T10:13:40.105Z,9.45
2019-03-25T10:16:10.854Z,9.26
2019-03-25T10:18:41.672Z,9.19
2019-03-25T10:21:12.523Z,9.05
2019-03-25T10:23:43.359Z,8.92
2019-03-25T10:26:14.189Z,8.97
2019-03-25T10:28:48.876Z,9.08
2019-03-25T10:31:17.782Z,9.02
2019-03-25T10:33:48.648Z,8.75
2019-03-25T10:36:19.397Z,8.83
2019-03-25T10:38:50.225Z,8.73
2019-03-25T10:41:21.009Z,8.80
2019-03-25T10:43:51.775Z,8.68
2019-03-25T10:46:22.536Z,8.31
2019-03-25T10:48:53.297Z,8.37
2019-03-25T10:51:24.066Z,8.53
2019-03-25T10:53:54.831Z,8.30
2019-03-25T10:56:25.583Z,8.40
2019-03-25T10:58:58.347Z,8.50
2019-03-25T11:01:29.002Z,8.45
2019-03-25T11:03:59.775Z,8.57
2019-03-25T11:06:30.526Z,8.54
2019-03-25T11:09:01.395Z,8.61
2019-03-25T11:11:32.149Z,8.74
2019-03-25T11:14:02.915Z,9.06
2019-03-25T11:16:33.808Z,9.49
2019-03-25T11:19:04.609Z,9.61
2019-03-25T11:21:35.366Z,9.85
2019-03-25T11:24:06.130Z,9.94
2019-03-25T11:26:36.907Z,9.81
2019-03-25T11:29:08.673Z,10.17
2019-03-25T11:31:39.699Z,10.50
2019-03-25T11:34:10.471Z,10.38
2019-03-25T11:36:41.333Z,10.19
2019-03-25T11:39:12.105Z,10.11
2019-03-25T11:41:42.942Z,9.91
2019-03-25T11:44:13.798Z,9.77
2019-03-25T11:46:44.624Z,9.73
2019-03-25T11:49:15.458Z,10.00
2019-03-25T11:51:46.211Z,10.34
2019-03-25T11:54:16.987Z,10.43
2019-03-25T11:56:47.765Z,10.29
2019-03-25T11:59:19.102Z,10.49
2019-03-25T12:01:49.894Z,10.31
2019-03-25T12:04:20.904Z,10.31
2019-03-25T12:06:51.667Z,10.23
2019-03-25T12:09:22.466Z,10.10
2019-03-25T12:11:53.256Z,9.97
2019-03-25T12:14:24.035Z,9.86
2019-03-25T12:16:54.904Z,9.70
2019-03-25T12:19:25.714Z,9.78
2019-03-25T12:21:56.557Z,9.86
2019-03-25T12:24:27.386Z,9.53
2019-03-25T12:26:58.197Z,9.40
2019-03-25T12:29:30.523Z,9.07
2019-03-25T12:32:01.493Z,8.49
2019-03-25T12:34:32.409Z,8.19
2019-03-25T12:37:03.147Z,8.20
2019-03-25T12:39:33.963Z,8.36
2019-03-25T12:42:04.730Z,8.23
2019-03-25T12:44:35.510Z,8.21
2019-03-25T12:47:06.275Z,8.08
2019-03-25T12:49:37.050Z,8.08
2019-03-25T12:52:07.834Z,8.42
2019-03-25T12:54:38.656Z,8.37
2019-03-25T12:57:09.412Z,8.43
2019-03-25T12:59:41.427Z,8.60
2019-03-25T13:02:12.536Z,8.50
2019-03-25T13:04:43.323Z,8.60
2019-03-25T13:07:14.149Z,8.73
2019-03-25T13:09:44.920Z,8.67
2019-03-25T13:12:15.716Z,8.76
2019-03-25T13:14:46.569Z,8.77
2019-03-25T13:17:17.326Z,8.71
2019-03-25T13:19:48.118Z,8.69
2019-03-25T13:22:19.007Z,8.72
2019-03-25T13:24:49.840Z,8.77
2019-03-25T13:27:20.713Z,8.84
2019-03-25T13:29:52.910Z,8.82
2019-03-25T13:32:23.890Z,8.85
2019-03-25T13:34:54.807Z,8.71
2019-03-25T13:37:25.616Z,8.56
2019-03-25T13:39:56.509Z,8.62
2019-03-25T13:42:27.362Z,8.62
2019-03-25T13:44:58.139Z,8.68
2019-03-25T13:47:28.892Z,8.85
2019-03-25T13:49:59.737Z,8.86
2019-03-25T13:52:30.490Z,8.95
2019-03-25T13:55:01.258Z,8.92
2019-03-25T13:57:32.033Z,8.89
2019-03-25T14:00:05.007Z,8.77
2019-03-25T14:02:35.859Z,8.80
2019-03-25T14:05:06.753Z,8.58
2019-03-25T14:07:37.526Z,8.38
2019-03-25T14:10:10.635Z,8.27
2019-03-25T14:12:41.369Z,7.98
2019-03-25T14:15:12.132Z,8.10
2019-03-25T14:17:42.886Z,7.98
2019-03-25T14:20:13.781Z,8.00
2019-03-25T14:22:44.625Z,7.59
2019-03-25T14:25:15.438Z,7.23
2019-03-25T14:27:46.213Z,7.40
2019-03-25T14:30:17.188Z,7.78
2019-03-25T14:32:48.077Z,7.52
2019-03-25T14:35:18.876Z,7.57
2019-03-25T14:37:49.689Z,7.64
2019-03-25T14:40:20.453Z,7.89
2019-03-25T14:42:51.220Z,7.98
2019-03-25T14:45:26.300Z,8.12
2019-03-25T14:47:54.735Z,8.15
2019-03-25T14:50:25.608Z,8.24
2019-03-25T14:52:56.366Z,8.31
2019-03-25T14:55:27.174Z,8.39
2019-03-25T14:57:57.950Z,8.37
2019-03-25T15:00:28.710Z,8.38
2019-03-25T15:02:59.504Z,8.43
2019-03-25T15:05:30.288Z,8.47
2019-03-25T15:08:01.192Z,8.49
2019-03-25T15:10:31.946Z,8.34
2019-03-25T15:13:02.755Z,8.39
2019-03-25T15:15:33.518Z,8.38
2019-03-25T15:18:14.974Z,8.29
2019-03-25T15:20:36.974Z,8.39
2019-03-25T15:23:07.743Z,8.55
2019-03-25T15:25:38.487Z,8.34
2019-03-25T15:28:09.456Z,8.49
2019-03-25T15:30:40.210Z,8.56
2019-03-25T15:33:10.996Z,8.55
2019-03-25T15:35:41.754Z,8.65
2019-03-25T15:38:12.518Z,8.59
2019-03-25T15:40:43.276Z,8.57
2019-03-25T15:43:14.040Z,8.40
2019-03-25T15:45:44.828Z,8.37
2019-03-25T15:48:15.700Z,8.34
2019-03-25T15:50:46.454Z,7.84
2019-03-25T15:53:17.222Z,7.64
2019-03-25T15:55:48.006Z,7.37
2019-03-25T15:58:25.907Z,7.44
2019-03-25T16:00:51.457Z,7.41
2019-03-25T16:03:22.217Z,7.20
2019-03-25T16:05:52.980Z,7.10
2019-03-25T16:08:23.773Z,6.97
2019-03-25T16:10:54.533Z,6.52
2019-03-25T16:13:25.441Z,6.68
2019-03-25T16:15:56.280Z,6.80
2019-03-25T16:18:37.924Z,6.82
2019-03-25T16:21:08.792Z,7.01
2019-03-25T16:23:39.545Z,6.57
2019-03-25T16:26:10.317Z,6.83
2019-03-25T16:28:41.075Z,7.03
2019-03-25T16:31:11.830Z,7.26
2019-03-25T16:33:42.624Z,7.23
2019-03-25T16:36:13.407Z,7.03
2019-03-25T16:38:44.168Z,7.02
2019-03-25T16:41:14.927Z,7.10
2019-03-25T16:43:45.736Z,7.16
2019-03-25T16:46:16.503Z,7.02
2019-03-25T16:48:47.264Z,7.16
2019-03-25T16:51:18.022Z,7.14
2019-03-25T16:53:48.792Z,7.03
2019-03-25T16:56:19.570Z,7.11
2019-03-25T16:58:50.338Z,6.92
2019-03-25T17:01:21.100Z,6.88
2019-03-25T17:03:51.867Z,6.94
2019-03-25T17:06:22.634Z,6.98
2019-03-25T17:08:53.426Z,6.82
2019-03-25T17:11:24.182Z,6.91
2019-03-25T17:13:54.954Z,6.96
2019-03-25T17:16:25.707Z,6.98
2019-03-25T17:18:56.475Z,7.12
2019-03-25T17:21:27.540Z,7.12
2019-03-25T17:23:58.313Z,7.04
2019-03-25T17:26:29.093Z,7.07
2019-03-25T17:28:59.857Z,7.09
2019-03-25T17:31:30.613Z,7.01
2019-03-25T17:34:01.395Z,7.04
2019-03-25T17:36:32.145Z,7.11
2019-03-25T17:39:06.315Z,7.10
2019-03-25T17:41:37.084Z,7.04
2019-03-25T17:44:07.865Z,7.01
2019-03-25T17:46:38.618Z,7.00
2019-03-25T17:49:09.390Z,7.10
2019-03-25T17:51:40.150Z,6.98
2019-03-25T17:54:10.953Z,6.99
2019-03-25T17:56:41.757Z,6.94
2019-03-25T17:59:12.631Z,7.04
2019-03-25T18:01:43.454Z,6.77
2019-03-25T18:04:14.334Z,6.84
2019-03-25T18:06:45.145Z,6.76
2019-03-25T18:09:15.977Z,6.71
2019-03-25T18:11:46.779Z,6.80
2019-03-25T18:14:17.605Z,6.80
2019-03-25T18:16:48.436Z,6.70
2019-03-25T18:19:19.248Z,6.84
2019-03-25T18:21:50.061Z,6.87
2019-03-25T18:24:20.917Z,6.73
2019-03-25T18:26:51.733Z,6.73
2019-03-25T18:29:22.535Z,6.73
2019-03-25T18:31:53.297Z,6.70
2019-03-25T18:34:24.105Z,6.68
2019-03-25T18:36:54.896Z,6.72
2019-03-25T18:39:25.689Z,6.65
2019-03-25T18:41:56.448Z,6.50
2019-03-25T18:44:27.244Z,6.45
2019-03-25T18:46:58.026Z,6.38
2019-03-25T18:49:28.821Z,6.10
2019-03-25T18:51:59.572Z,6.00
2019-03-25T18:54:30.375Z,5.99
2019-03-25T18:57:01.129Z,6.05
2019-03-25T18:59:32.191Z,6.21
2019-03-25T19:02:03.084Z,6.17
2019-03-25T19:04:33.854Z,5.70
2019-03-25T19:07:04.635Z,5.83
2019-03-25T19:09:35.437Z,6.08
2019-03-25T19:12:06.166Z,5.80
2019-03-25T19:14:37.000Z,5.76
2019-03-25T19:17:07.760Z,5.84
2019-03-25T19:19:38.690Z,6.00
2019-03-25T19:22:12.476Z,5.79
2019-03-25T19:24:42.701Z,5.97
2019-03-25T19:27:14.010Z,5.95
2019-03-25T19:29:44.877Z,5.86
2019-03-25T19:32:15.647Z,5.77
2019-03-25T19:34:46.972Z,5.61
2019-03-25T19:37:17.906Z,5.80
2019-03-25T19:39:48.750Z,5.92
2019-03-25T19:42:20.038Z,6.00
2019-03-25T19:44:51.130Z,5.89
2019-03-25T19:47:22.522Z,5.86
2019-03-25T19:49:53.780Z,5.69
2019-03-25T19:52:24.847Z,5.66
2019-03-25T19:54:55.942Z,5.82
2019-03-25T19:57:28.354Z,5.69
2019-03-25T20:00:00.095Z,5.65
2019-03-25T20:02:32.295Z,5.77
2019-03-25T20:05:05.764Z,5.77
2019-03-25T20:07:36.989Z,5.65
2019-03-25T20:10:29.835Z,5.75
2019-03-25T20:13:01.265Z,5.84
2019-03-25T20:15:45.034Z,5.68
2019-03-25T20:18:04.903Z,5.87
2019-03-25T20:20:35.646Z,5.72
2019-03-25T20:23:06.469Z,5.57
2019-03-25T20:25:37.274Z,5.51
2019-03-25T20:28:08.095Z,5.50
2019-03-25T20:30:38.961Z,5.51
2019-03-25T20:33:12.874Z,5.19
2019-03-25T20:35:43.714Z,5.54
2019-03-25T20:38:14.563Z,5.68
2019-03-25T20:40:45.490Z,5.66
2019-03-25T20:43:16.271Z,5.69
2019-03-25T20:45:47.027Z,5.59
2019-03-25T20:48:17.824Z,5.76
2019-03-25T20:50:48.797Z,5.74
2019-03-25T20:53:19.658Z,5.55
2019-03-25T20:55:50.452Z,5.47
2019-03-25T20:58:21.283Z,5.50
2019-03-25T21:00:52.985Z,5.58
2019-03-25T21:03:23.758Z,5.74
2019-03-25T21:05:54.794Z,5.64
2019-03-25T21:08:25.561Z,5.54
2019-03-25T21:10:56.450Z,5.48
2019-03-25T21:13:27.223Z,5.42
2019-03-25T21:15:57.992Z,5.47
2019-03-25T21:18:28.720Z,5.42
2019-03-25T21:20:59.676Z,5.40
2019-03-25T21:23:30.521Z,5.42
2019-03-25T21:26:01.231Z,5.40
2019-03-25T21:28:31.991Z,5.47
2019-03-25T21:31:02.813Z,5.48
2019-03-25T21:33:33.557Z,5.35
2019-03-25T21:36:04.360Z,5.40
2019-03-25T21:38:35.192Z,5.29
2019-03-25T21:41:06.069Z,5.22
2019-03-25T21:43:36.851Z,5.27
2019-03-25T21:46:07.664Z,5.45
2019-03-25T21:48:39.937Z,5.31
2019-03-25T21:51:11.071Z,5.29
2019-03-25T21:53:41.972Z,5.23
2019-03-25T21:56:12.847Z,5.14
2019-03-25T21:58:43.569Z,5.17
2019-03-25T22:01:14.361Z,5.19
2019-03-25T22:03:45.145Z,5.21
2019-03-25T22:06:15.945Z,5.21
2019-03-25T22:08:46.706Z,5.24
2019-03-25T22:11:17.474Z,5.21
2019-03-25T22:13:48.306Z,5.20
2019-03-25T22:16:19.105Z,5.22
2019-03-25T22:18:49.922Z,5.19
2019-03-25T22:21:20.682Z,5.25
2019-03-25T22:23:53.770Z,5.23
2019-03-25T22:26:24.144Z,5.23
2019-03-25T22:28:54.951Z,5.29
2019-03-25T22:31:25.713Z,5.39
2019-03-25T22:33:56.510Z,5.36
2019-03-25T22:36:27.286Z,5.29
2019-03-25T22:38:58.067Z,5.33
2019-03-25T22:41:28.898Z,5.37
2019-03-25T22:43:59.649Z,5.45
2019-03-25T22:46:30.425Z,5.38
2019-03-25T22:49:01.372Z,5.30
2019-03-25T22:51:32.159Z,5.20
2019-03-25T22:54:02.917Z,5.29
2019-03-25T22:56:33.746Z,5.30
2019-03-25T22:59:04.545Z,5.32
2019-03-25T23:01:35.319Z,5.39
2019-03-25T23:04:06.110Z,5.28
2019-03-25T23:06:36.870Z,5.26
2019-03-25T23:09:07.651Z,5.23
2019-03-25T23:11:38.421Z,5.23
2019-03-25T23:14:09.183Z,5.21
2019-03-25T23:16:39.954Z,5.15
2019-03-25T23:19:10.743Z,5.15
2019-03-25T23:21:41.535Z,5.12
2019-03-25T23:24:12.293Z,5.00
2019-03-25T23:26:43.089Z,4.83
2019-03-25T23:29:13.871Z,4.72
2019-03-25T23:31:44.629Z,4.80
2019-03-25T23:34:15.446Z,4.85
2019-03-25T23:36:46.214Z,4.88
2019-03-25T23:39:17.004Z,4.78
2019-03-25T23:41:47.802Z,4.67
2019-03-25T23:44:18.581Z,4.82
2019-03-25T23:46:49.349Z,4.77
2019-03-25T23:49:20.115Z,4.77
2019-03-25T23:51:50.878Z,4.87
2019-03-25T23:54:21.634Z,4.90
2019-03-25T23:56:52.411Z,4.91
2019-03-25T23:59:23.154Z,4.77
